Terminal Aerodrome Forecast
Issued by NWS

Home | Current Version | Previous Version | Text Only | Print | Product List | Glossary On
Versions: 1 2 3 4 5 6 7 8 9 10 11 12 13 14
000
FTUS43 KOAX 210520
TAFCDR
TAF
KCDR 210520Z 2106/2206 09007KT P6SM OVC100
     FM210700 13008KT P6SM -RA BKN050 OVC100
     FM211300 15011KT 6SM -RA OVC015
     FM212000 13010KT P6SM OVC050=

USA.gov is the U.S. government's official web portal to all federal, state and local government web resources and services.